Akiachak, Alaska
Current Conditions -  °F | °C
As of 9:56 PM on Friday 24 Oct 2014 (Local Time) from PFKW Reporting Station
Clear Clear  
Wind Chill: 20°   Ceiling: Unl
Heat Index: 28°   Visibility: 10mi
Dew Point: 25°   Wind: 8mph
Humidity: 88%   Direction: 170°S
Pressure: 29.97"   Gusts: NA
Location:  60.91°N, 161.44°W
Report Text: PFKW 250556Z AUTO 17007KT 10SM CLR M02/M04 A2997 RMK AO2 SLP150 T10221039 10017 21022 56001 FZRANO
Loading
Personal Weather Stations






























Interactive Weather Map New forecast layout! Learn more

10-Day Weather Forecast

Advertisements
Track Severe Weather on mobile